sensor_id;sensor_type;location;lat;lon;timestamp;P1;durP1;ratioP1;P2;durP2;ratioP2
38899;SDS011;24660;43.238;26.576;2022-10-16T00:00:18;2.60;;;2.50;;
38899;SDS011;24660;43.238;26.576;2022-10-16T00:02:43;2.60;;;2.50;;
38899;SDS011;24660;43.238;26.576;2022-10-16T00:05:11;2.70;;;2.60;;
38899;SDS011;24660;43.238;26.576;2022-10-16T00:07:37;2.65;;;2.55;;
38899;SDS011;24660;43.238;26.576;2022-10-16T00:10:02;2.60;;;2.50;;
38899;SDS011;24660;43.238;26.576;2022-10-16T00:12:28;2.60;;;2.50;;
38899;SDS011;24660;43.238;26.576;2022-10-16T00:14:53;2.50;;;2.40;;
38899;SDS011;24660;43.238;26.576;2022-10-16T00:17:19;2.50;;;2.40;;
38899;SDS011;24660;43.238;26.576;2022-10-16T00:19:44;2.33;;;2.22;;
38899;SDS011;24660;43.238;26.576;2022-10-16T00:22:10;2.30;;;2.20;;
38899;SDS011;24660;43.238;26.576;2022-10-16T00:24:36;2.42;;;2.33;;
38899;SDS011;24660;43.238;26.576;2022-10-16T00:27:01;2.40;;;2.30;;
38899;SDS011;24660;43.238;26.576;2022-10-16T00:29:27;2.80;;;2.70;;
38899;SDS011;24660;43.238;26.576;2022-10-16T00:31:52;2.70;;;2.60;;
38899;SDS011;24660;43.238;26.576;2022-10-16T00:34:18;2.70;;;2.60;;
38899;SDS011;24660;43.238;26.576;2022-10-16T00:36:43;2.70;;;2.60;;
38899;SDS011;24660;43.238;26.576;2022-10-16T00:39:09;2.53;;;2.42;;
38899;SDS011;24660;43.238;26.576;2022-10-16T00:41:37;2.80;;;2.70;;
38899;SDS011;24660;43.238;26.576;2022-10-16T00:44:03;2.95;;;2.75;;
38899;SDS011;24660;43.238;26.576;2022-10-16T00:47:03;2.70;;;2.60;;
38899;SDS011;24660;43.238;26.576;2022-10-16T00:49:29;2.88;;;2.75;;
38899;SDS011;24660;43.238;26.576;2022-10-16T00:51:54;3.20;;;3.00;;
38899;SDS011;24660;43.238;26.576;2022-10-16T00:54:23;2.92;;;2.72;;
38899;SDS011;24660;43.238;26.576;2022-10-16T00:56:51;2.45;;;2.35;;
38899;SDS011;24660;43.238;26.576;2022-10-16T00:59:19;2.50;;;2.40;;
38899;SDS011;24660;43.238;26.576;2022-10-16T01:01:55;2.80;;;2.70;;
38899;SDS011;24660;43.238;26.576;2022-10-16T01:04:23;2.60;;;2.50;;
38899;SDS011;24660;43.238;26.576;2022-10-16T01:09:18;2.70;;;2.60;;
38899;SDS011;24660;43.238;26.576;2022-10-16T01:12:01;2.92;;;2.72;;
38899;SDS011;24660;43.238;26.576;2022-10-16T01:14:58;2.60;;;2.50;;
38899;SDS011;24660;43.238;26.576;2022-10-16T01:17:34;2.58;;;2.47;;
38899;SDS011;24660;43.238;26.576;2022-10-16T01:20:10;2.90;;;2.70;;
38899;SDS011;24660;43.238;26.576;2022-10-16T01:22:39;2.40;;;2.30;;
38899;SDS011;24660;43.238;26.576;2022-10-16T01:25:17;2.50;;;2.40;;
38899;SDS011;24660;43.238;26.576;2022-10-16T01:27:50;2.60;;;2.50;;
38899;SDS011;24660;43.238;26.576;2022-10-16T01:30:18;2.33;;;2.22;;
38899;SDS011;24660;43.238;26.576;2022-10-16T01:32:51;2.40;;;2.30;;
38899;SDS011;24660;43.238;26.576;2022-10-16T01:40:50;2.50;;;2.40;;
38899;SDS011;24660;43.238;26.576;2022-10-16T01:43:24;2.60;;;2.50;;
38899;SDS011;24660;43.238;26.576;2022-10-16T01:45:56;2.60;;;2.50;;
38899;SDS011;24660;43.238;26.576;2022-10-16T01:48:23;2.25;;;2.15;;
38899;SDS011;24660;43.238;26.576;2022-10-16T01:50:53;2.28;;;2.17;;
38899;SDS011;24660;43.238;26.576;2022-10-16T01:53:22;2.40;;;2.30;;
38899;SDS011;24660;43.238;26.576;2022-10-16T01:55:49;2.35;;;2.25;;
38899;SDS011;24660;43.238;26.576;2022-10-16T01:58:17;2.30;;;2.20;;
38899;SDS011;24660;43.238;26.576;2022-10-16T02:00:43;2.30;;;2.20;;
38899;SDS011;24660;43.238;26.576;2022-10-16T02:03:11;2.30;;;2.20;;
38899;SDS011;24660;43.238;26.576;2022-10-16T02:08:25;2.40;;;2.30;;
38899;SDS011;24660;43.238;26.576;2022-10-16T02:10:58;2.42;;;2.33;;
38899;SDS011;24660;43.238;26.576;2022-10-16T02:13:26;2.40;;;2.30;;
38899;SDS011;24660;43.238;26.576;2022-10-16T02:15:56;2.20;;;2.10;;
38899;SDS011;24660;43.238;26.576;2022-10-16T02:18:22;2.42;;;2.33;;
38899;SDS011;24660;43.238;26.576;2022-10-16T02:20:50;2.67;;;2.58;;
38899;SDS011;24660;43.238;26.576;2022-10-16T02:23:24;2.63;;;2.53;;
38899;SDS011;24660;43.238;26.576;2022-10-16T02:26:08;2.55;;;2.45;;
38899;SDS011;24660;43.238;26.576;2022-10-16T02:28:42;2.60;;;2.50;;
38899;SDS011;24660;43.238;26.576;2022-10-16T02:31:12;2.50;;;2.40;;
